createdAt,value
2023-05-20T00:00:07.868Z,1008.74
2023-05-20T00:00:35.619Z,1008.84
2023-05-20T00:00:54.911Z,1008.84
2023-05-20T00:01:26.924Z,1008.84
2023-05-20T00:01:59.308Z,1008.63
2023-05-20T00:02:31.298Z,1008.63
2023-05-20T00:03:03.003Z,1008.63
2023-05-20T00:03:35.805Z,1008.74
2023-05-20T00:04:07.135Z,1008.74
2023-05-20T00:04:35.644Z,1008.84
2023-05-20T00:04:55.155Z,1008.84
2023-05-20T00:05:26.939Z,1008.84
2023-05-20T00:05:59.756Z,1008.74
2023-05-20T00:06:31.472Z,1008.74
2023-05-20T00:07:03.653Z,1008.74
2023-05-20T00:07:35.533Z,1008.63
2023-05-20T00:08:07.919Z,1008.63
2023-05-20T00:08:36.341Z,1008.74
2023-05-20T00:08:54.901Z,1008.74
2023-05-20T00:09:33.033Z,1008.74
2023-05-20T00:09:35.514Z,1008.53
2023-05-20T00:09:59.344Z,1008.53
2023-05-20T00:10:30.884Z,1008.53
2023-05-20T00:11:02.899Z,1008.63
2023-05-20T00:11:35.597Z,1008.53
2023-05-20T00:12:06.907Z,1008.53
2023-05-20T00:12:35.602Z,1008.84
2023-05-20T00:12:54.905Z,1008.84
2023-05-20T00:13:27.826Z,1008.84
2023-05-20T00:13:59.462Z,1008.63
2023-05-20T00:14:31.943Z,1008.63
2023-05-20T00:15:02.914Z,1008.94
2023-05-20T00:15:37.164Z,1008.74
2023-05-20T00:16:06.971Z,1008.74
2023-05-20T00:16:35.591Z,1008.63
2023-05-20T00:16:55.105Z,1008.63
2023-05-20T00:17:27.118Z,1008.63
2023-05-20T00:17:59.877Z,1008.63
2023-05-20T00:18:30.989Z,1008.63
2023-05-20T00:19:02.992Z,1008.53
2023-05-20T00:19:35.435Z,1008.74
2023-05-20T00:20:06.979Z,1008.74
2023-05-20T00:20:35.636Z,1008.53
2023-05-20T00:20:55.236Z,1008.53
2023-05-20T00:21:27.706Z,1008.53
2023-05-20T00:21:59.370Z,1008.53
2023-05-20T00:22:31.794Z,1008.53
2023-05-20T00:23:02.910Z,1008.53
2023-05-20T00:23:35.988Z,1008.74
2023-05-20T00:24:06.882Z,1008.74
2023-05-20T00:24:35.586Z,1008.43
2023-05-20T00:24:54.894Z,1008.43
2023-05-20T00:25:26.888Z,1008.43
2023-05-20T00:26:00.716Z,1008.63
2023-05-20T00:26:30.884Z,1008.63
2023-05-20T00:27:03.781Z,1008.63
2023-05-20T00:27:35.336Z,1008.63
2023-05-20T00:28:07.958Z,1008.63
2023-05-20T00:28:35.700Z,1008.63
2023-05-20T00:28:54.894Z,1008.63
2023-05-20T00:29:26.966Z,1008.63
2023-05-20T00:29:59.319Z,1008.63
2023-05-20T00:30:30.867Z,1008.63
2023-05-20T00:31:02.876Z,1008.43
2023-05-20T00:31:35.636Z,1008.43
2023-05-20T00:32:06.939Z,1008.43
2023-05-20T00:32:35.607Z,1008.63
2023-05-20T00:32:55.307Z,1008.63
2023-05-20T00:33:27.729Z,1008.63
2023-05-20T00:33:59.250Z,1008.53
2023-05-20T00:34:31.764Z,1008.53
2023-05-20T00:35:02.898Z,1008.53
2023-05-20T00:35:36.446Z,1008.74
2023-05-20T00:36:06.851Z,1008.74
2023-05-20T00:36:35.588Z,1008.63
2023-05-20T00:36:54.848Z,1008.63
2023-05-20T00:37:26.829Z,1008.63
2023-05-20T00:37:59.709Z,1008.53
2023-05-20T00:38:30.846Z,1008.53
2023-05-20T00:39:03.713Z,1008.63
2023-05-20T00:39:35.624Z,1008.63
2023-05-20T00:40:07.661Z,1008.63
2023-05-20T00:40:36.443Z,1008.63
2023-05-20T00:40:55.178Z,1008.63
2023-05-20T00:41:26.848Z,1008.63
2023-05-20T00:42:04.992Z,1008.63
2023-05-20T00:42:15.610Z,1008.43
2023-05-20T00:42:35.715Z,1008.43
2023-05-20T00:43:02.902Z,1008.43
2023-05-20T00:43:36.272Z,1008.63
2023-05-20T00:44:06.857Z,1008.63
2023-05-20T00:44:35.749Z,1008.53
2023-05-20T00:44:54.883Z,1008.53
2023-05-20T00:45:27.761Z,1008.53
2023-05-20T00:45:59.424Z,1008.63
2023-05-20T00:46:31.774Z,1008.63
2023-05-20T00:47:03.056Z,1008.53
2023-05-20T00:47:36.843Z,1008.63
2023-05-20T00:48:07.019Z,1008.63
2023-05-20T00:48:35.598Z,1008.63
2023-05-20T00:48:54.833Z,1008.63
2023-05-20T00:49:26.864Z,1008.63
2023-05-20T00:50:00.042Z,1008.43
2023-05-20T00:50:30.848Z,1008.43
2023-05-20T00:51:03.749Z,1008.23
2023-05-20T00:51:35.272Z,1008.63
2023-05-20T00:52:07.766Z,1008.63
2023-05-20T00:52:35.745Z,1008.43
2023-05-20T00:52:54.821Z,1008.43
2023-05-20T00:53:26.867Z,1008.43
2023-05-20T00:53:59.148Z,1008.74
2023-05-20T00:54:30.845Z,1008.74
2023-05-20T00:55:02.856Z,1008.53
2023-05-20T00:55:35.857Z,1008.43
2023-05-20T00:56:06.805Z,1008.43
2023-05-20T00:56:35.618Z,1008.53
2023-05-20T00:56:56.032Z,1008.53
2023-05-20T00:57:27.875Z,1008.53
2023-05-20T00:57:59.242Z,1008.53
2023-05-20T00:58:31.728Z,1008.53
2023-05-20T00:59:02.874Z,1008.63
2023-05-20T00:59:35.746Z,1008.53
2023-05-20T01:00:07.103Z,1008.53
2023-05-20T01:00:35.746Z,1008.53
2023-05-20T01:00:54.882Z,1008.53
2023-05-20T01:01:26.805Z,1008.53
2023-05-20T01:01:59.729Z,1008.63
2023-05-20T01:02:30.831Z,1008.63
2023-05-20T01:03:03.912Z,1008.63
2023-05-20T01:03:35.730Z,1008.74
2023-05-20T01:04:07.794Z,1008.74
2023-05-20T01:04:35.766Z,1008.43
2023-05-20T01:04:54.858Z,1008.43
2023-05-20T01:05:26.844Z,1008.43
2023-05-20T01:05:59.078Z,1008.43
2023-05-20T01:06:30.848Z,1008.43
2023-05-20T01:07:02.838Z,1008.53
2023-05-20T01:07:35.782Z,1008.53
2023-05-20T01:08:06.793Z,1008.53
2023-05-20T01:08:35.827Z,1008.33
2023-05-20T01:08:54.811Z,1008.33
2023-05-20T01:09:27.770Z,1008.33
2023-05-20T01:09:59.115Z,1008.53
2023-05-20T01:10:31.625Z,1008.53
2023-05-20T01:11:02.842Z,1008.53
2023-05-20T01:11:35.800Z,1008.53
2023-05-20T01:12:06.800Z,1008.53
2023-05-20T01:12:35.753Z,1008.63
2023-05-20T01:12:54.973Z,1008.63
2023-05-20T01:13:26.944Z,1008.63
2023-05-20T01:13:59.872Z,1008.43
2023-05-20T01:14:30.877Z,1008.43
2023-05-20T01:15:03.903Z,1008.63
2023-05-20T01:15:35.925Z,1008.63
2023-05-20T01:16:07.869Z,1008.63
2023-05-20T01:16:35.795Z,1008.43
2023-05-20T01:16:54.870Z,1008.43
2023-05-20T01:17:27.263Z,1008.43
2023-05-20T01:17:59.190Z,1008.43
2023-05-20T01:18:30.807Z,1008.43
2023-05-20T01:19:02.887Z,1008.43
2023-05-20T01:19:35.105Z,1008.53
2023-05-20T01:20:06.825Z,1008.53
2023-05-20T01:20:35.709Z,1008.53
2023-05-20T01:20:54.820Z,1008.53
2023-05-20T01:21:27.775Z,1008.53
2023-05-20T01:21:59.103Z,1008.53
2023-05-20T01:22:31.720Z,1008.53
2023-05-20T01:23:02.962Z,1008.63
2023-05-20T01:23:36.773Z,1008.43
2023-05-20T01:24:06.762Z,1008.43
2023-05-20T01:24:35.628Z,1008.53
2023-05-20T01:24:54.780Z,1008.53
2023-05-20T01:25:26.851Z,1008.53
2023-05-20T01:25:59.712Z,1008.53
2023-05-20T01:26:30.880Z,1008.53
2023-05-20T01:27:03.810Z,1008.53
2023-05-20T01:27:35.094Z,1008.63
2023-05-20T01:28:07.708Z,1008.63
2023-05-20T01:28:35.791Z,1008.63
2023-05-20T01:28:54.865Z,1008.63
2023-05-20T01:29:26.828Z,1008.63
2023-05-20T01:29:43.264Z,1008.33
2023-05-20T01:30:22.114Z,1008.33
2023-05-20T01:30:31.707Z,1008.33
2023-05-20T01:31:02.904Z,1008.33
2023-05-20T01:31:36.746Z,1008.33
2023-05-20T01:32:06.813Z,1008.33
2023-05-20T01:32:35.707Z,1008.33
2023-05-20T01:32:54.894Z,1008.33
2023-05-20T01:33:26.819Z,1008.33
2023-05-20T01:33:43.264Z,1008.53
2023-05-20T01:34:14.854Z,1008.53
2023-05-20T01:34:35.786Z,1008.63
2023-05-20T01:35:03.724Z,1008.63
2023-05-20T01:35:35.377Z,1008.43
2023-05-20T01:36:07.800Z,1008.43
2023-05-20T01:36:35.800Z,1008.43
2023-05-20T01:36:55.955Z,1008.43
2023-05-20T01:37:26.847Z,1008.43
2023-05-20T01:37:58.879Z,1008.53
2023-05-20T01:38:30.817Z,1008.53
2023-05-20T01:39:08.956Z,1008.53
2023-05-20T01:39:19.636Z,1008.33
2023-05-20T01:39:50.838Z,1008.43
2023-05-20T01:40:23.823Z,1008.43
2023-05-20T01:40:40.941Z,1008.43
2023-05-20T01:41:11.026Z,1008.43
2023-05-20T01:41:35.863Z,1008.23
2023-05-20T01:41:59.078Z,1008.23
2023-05-20T01:42:31.712Z,1008.23
2023-05-20T01:43:02.839Z,1008.53
2023-05-20T01:43:36.293Z,1008.43
2023-05-20T01:44:07.505Z,1008.43
2023-05-20T01:44:35.848Z,1008.53
2023-05-20T01:44:54.813Z,1008.53
2023-05-20T01:45:26.803Z,1008.53
2023-05-20T01:45:43.424Z,1008.53
2023-05-20T01:46:14.881Z,1008.53
2023-05-20T01:46:35.687Z,1008.33
2023-05-20T01:47:03.665Z,1008.33
2023-05-20T01:47:35.163Z,1008.53
2023-05-20T01:48:13.360Z,1008.53
2023-05-20T01:48:23.774Z,1008.53
2023-05-20T01:48:41.005Z,1008.43
2023-05-20T01:49:10.872Z,1008.43
2023-05-20T01:49:35.812Z,1008.53
2023-05-20T01:49:59.186Z,1008.53
2023-05-20T01:50:31.631Z,1008.53
2023-05-20T01:51:02.874Z,1008.43
2023-05-20T01:51:35.834Z,1008.74
2023-05-20T01:52:06.795Z,1008.74
2023-05-20T01:52:35.744Z,1008.43
2023-05-20T01:52:55.387Z,1008.43
2023-05-20T01:53:26.827Z,1008.43
2023-05-20T01:53:43.347Z,1008.53
2023-05-20T01:54:14.816Z,1008.53
2023-05-20T01:54:35.650Z,1008.33
2023-05-20T01:55:03.561Z,1008.33
2023-05-20T01:55:35.436Z,1008.43
2023-05-20T01:56:07.669Z,1008.43
2023-05-20T01:56:35.603Z,1008.63
2023-05-20T01:56:54.770Z,1008.63
2023-05-20T01:57:27.432Z,1008.63
2023-05-20T01:57:43.285Z,1008.43
2023-05-20T01:58:15.568Z,1008.43
2023-05-20T01:58:35.629Z,1008.23
2023-05-20T01:59:02.804Z,1008.23
2023-05-20T01:59:34.821Z,1008.53
2023-05-20T02:00:06.984Z,1008.53
2023-05-20T02:00:35.678Z,1008.43
2023-05-20T02:00:54.806Z,1008.43
2023-05-20T02:01:27.752Z,1008.43
2023-05-20T02:01:58.856Z,1008.53
2023-05-20T02:02:31.686Z,1008.53
2023-05-20T02:03:02.842Z,1008.53
2023-05-20T02:03:36.725Z,1008.33
2023-05-20T02:04:06.878Z,1008.33
2023-05-20T02:04:35.825Z,1008.43
2023-05-20T02:04:54.754Z,1008.43
2023-05-20T02:05:26.844Z,1008.43
2023-05-20T02:05:43.516Z,1008.53
2023-05-20T02:06:14.866Z,1008.53
2023-05-20T02:06:35.681Z,1008.43
2023-05-20T02:07:03.548Z,1008.43
2023-05-20T02:07:34.790Z,1008.43
2023-05-20T02:08:07.669Z,1008.43
2023-05-20T02:08:35.790Z,1008.53
2023-05-20T02:08:54.753Z,1008.53
2023-05-20T02:09:26.827Z,1008.53
2023-05-20T02:09:43.298Z,1008.33
2023-05-20T02:10:15.694Z,1008.33
2023-05-20T02:10:35.650Z,1008.43
2023-05-20T02:11:02.798Z,1008.43
2023-05-20T02:11:34.918Z,1008.43
2023-05-20T02:12:06.878Z,1008.43
2023-05-20T02:12:35.660Z,1008.53
2023-05-20T02:12:54.740Z,1008.53
2023-05-20T02:13:27.736Z,1008.53
2023-05-20T02:13:58.758Z,1008.53
2023-05-20T02:14:31.658Z,1008.53
2023-05-20T02:15:09.832Z,1008.53
2023-05-20T02:15:18.726Z,1008.43
2023-05-20T02:15:50.859Z,1008.63
2023-05-20T02:16:22.813Z,1008.63
2023-05-20T02:16:40.950Z,1008.53
2023-05-20T02:17:10.764Z,1008.53
2023-05-20T02:17:35.646Z,1008.53
2023-05-20T02:17:58.817Z,1008.53
2023-05-20T02:18:30.909Z,1008.53
2023-05-20T02:19:03.812Z,1008.53
2023-05-20T02:19:34.760Z,1008.33
2023-05-20T02:20:07.553Z,1008.33
2023-05-20T02:20:35.618Z,1008.33
2023-05-20T02:20:54.808Z,1008.33
2023-05-20T02:21:26.818Z,1008.33
2023-05-20T02:21:43.254Z,1008.33
2023-05-20T02:22:15.638Z,1008.33
2023-05-20T02:22:35.622Z,1008.43
2023-05-20T02:23:02.775Z,1008.43
2023-05-20T02:23:34.773Z,1008.33
2023-05-20T02:24:07.660Z,1008.33
2023-05-20T02:24:35.621Z,1008.23
2023-05-20T02:24:54.866Z,1008.23
2023-05-20T02:25:27.534Z,1008.23
2023-05-20T02:25:58.713Z,1008.43
2023-05-20T02:26:31.727Z,1008.43
2023-05-20T02:27:02.809Z,1008.33
2023-05-20T02:27:36.051Z,1008.53
2023-05-20T02:28:06.777Z,1008.53
2023-05-20T02:28:35.891Z,1008.53
2023-05-20T02:28:54.738Z,1008.53
2023-05-20T02:29:26.772Z,1008.53
2023-05-20T02:29:43.358Z,1008.43
2023-05-20T02:30:14.799Z,1008.43
2023-05-20T02:30:35.601Z,1008.53
2023-05-20T02:31:03.622Z,1008.53
2023-05-20T02:31:34.766Z,1008.53
2023-05-20T02:32:07.754Z,1008.53
2023-05-20T02:32:35.810Z,1008.43
2023-05-20T02:32:54.810Z,1008.43
2023-05-20T02:33:26.718Z,1008.43
2023-05-20T02:33:43.258Z,1008.23
2023-05-20T02:34:15.725Z,1008.23
2023-05-20T02:34:35.614Z,1008.43
2023-05-20T02:35:02.781Z,1008.43
2023-05-20T02:35:34.883Z,1008.23
2023-05-20T02:36:13.249Z,1008.23
2023-05-20T02:36:23.864Z,1008.23
2023-05-20T02:36:40.889Z,1008.33
2023-05-20T02:37:10.786Z,1008.33
2023-05-20T02:37:35.599Z,1008.23
2023-05-20T02:37:58.830Z,1008.23
2023-05-20T02:38:31.652Z,1008.23
2023-05-20T02:39:02.749Z,1008.43
2023-05-20T02:39:36.193Z,1008.13
2023-05-20T02:40:06.810Z,1008.13
2023-05-20T02:40:35.725Z,1008.33
2023-05-20T02:40:54.768Z,1008.33
2023-05-20T02:41:26.757Z,1008.33
2023-05-20T02:41:43.243Z,1008.33
2023-05-20T02:42:14.758Z,1008.33
2023-05-20T02:42:36.138Z,1008.23
2023-05-20T02:43:03.586Z,1008.23
2023-05-20T02:43:36.526Z,1008.33
2023-05-20T02:44:07.722Z,1008.33
2023-05-20T02:44:35.719Z,1007.92
2023-05-20T02:44:54.734Z,1007.92
2023-05-20T02:45:26.855Z,1007.92
2023-05-20T02:45:43.616Z,1008.23
2023-05-20T02:46:15.712Z,1008.23
2023-05-20T02:46:36.615Z,1008.23
2023-05-20T02:47:02.744Z,1008.23
2023-05-20T02:47:34.786Z,1008.23
2023-05-20T02:48:06.829Z,1008.23
2023-05-20T02:48:35.610Z,1008.23
2023-05-20T02:48:54.731Z,1008.23
2023-05-20T02:49:27.658Z,1008.23
2023-05-20T02:49:58.730Z,1008.33
2023-05-20T02:50:31.693Z,1008.33
2023-05-20T02:51:02.768Z,1008.43
2023-05-20T02:51:36.726Z,1008.33
2023-05-20T02:52:06.801Z,1008.33
2023-05-20T02:52:35.907Z,1008.13
2023-05-20T02:52:54.867Z,1008.13
2023-05-20T02:53:26.721Z,1008.13
2023-05-20T02:53:43.198Z,1008.13
2023-05-20T02:54:14.725Z,1008.13
2023-05-20T02:54:35.652Z,1008.13
2023-05-20T02:55:03.676Z,1008.13
2023-05-20T02:55:35.146Z,1008.23
2023-05-20T02:56:07.705Z,1008.23
2023-05-20T02:56:35.890Z,1008.13
2023-05-20T02:56:54.764Z,1008.13
2023-05-20T02:57:26.735Z,1008.13
2023-05-20T02:57:43.266Z,1008.23
2023-05-20T02:58:15.572Z,1008.23
2023-05-20T02:58:35.589Z,1008.13
2023-05-20T02:59:02.665Z,1008.13
2023-05-20T02:59:34.731Z,1008.23
2023-05-20T03:00:07.201Z,1008.23
2023-05-20T03:00:35.612Z,1008.13
2023-05-20T03:00:54.782Z,1008.13
2023-05-20T03:01:27.678Z,1008.13
2023-05-20T03:01:58.742Z,1008.33
2023-05-20T03:02:31.546Z,1008.33
2023-05-20T03:03:02.857Z,1008.23
2023-05-20T03:03:36.566Z,1008.02
2023-05-20T03:04:06.800Z,1008.02
2023-05-20T03:04:35.715Z,1008.02
2023-05-20T03:04:55.045Z,1008.02
2023-05-20T03:05:26.847Z,1008.02
2023-05-20T03:05:59.890Z,1008.02
2023-05-20T03:06:30.753Z,1008.02
2023-05-20T03:07:03.707Z,1007.92
2023-05-20T03:07:34.695Z,1007.92
2023-05-20T03:08:07.652Z,1008.13
2023-05-20T03:08:35.568Z,1007.92
2023-05-20T03:08:54.805Z,1007.92
2023-05-20T03:09:26.759Z,1007.92
2023-05-20T03:09:58.755Z,1008.23
2023-05-20T03:10:30.759Z,1008.23
2023-05-20T03:11:04.149Z,1008.02
2023-05-20T03:11:34.667Z,1008.02
2023-05-20T03:12:06.778Z,1008.23
2023-05-20T03:12:35.550Z,1008.02
2023-05-20T03:12:54.735Z,1008.02
2023-05-20T03:13:27.716Z,1008.02
2023-05-20T03:13:58.887Z,1008.13
2023-05-20T03:14:31.566Z,1008.13
2023-05-20T03:15:02.753Z,1008.02
2023-05-20T03:15:36.266Z,1008.02
2023-05-20T03:16:06.831Z,1008.02
2023-05-20T03:16:36.191Z,1008.23
2023-05-20T03:16:54.747Z,1008.23
2023-05-20T03:17:26.723Z,1008.23
2023-05-20T03:17:44.046Z,1008.23
2023-05-20T03:18:15.009Z,1008.23
2023-05-20T03:18:35.580Z,1008.13
2023-05-20T03:19:02.761Z,1008.13
2023-05-20T03:19:34.693Z,1008.02
2023-05-20T03:20:07.653Z,1008.02
2023-05-20T03:20:35.594Z,1008.02
2023-05-20T03:20:54.772Z,1008.02
2023-05-20T03:21:26.655Z,1008.02
2023-05-20T03:21:43.171Z,1008.23
2023-05-20T03:22:15.627Z,1008.23
2023-05-20T03:22:35.593Z,1008.02
2023-05-20T03:23:02.712Z,1008.02
2023-05-20T03:23:34.735Z,1008.02
2023-05-20T03:24:06.760Z,1008.23
2023-05-20T03:24:35.576Z,1008.23
2023-05-20T03:24:54.777Z,1008.23
2023-05-20T03:25:27.564Z,1008.23
2023-05-20T03:25:58.786Z,1008.13
2023-05-20T03:26:31.583Z,1008.13
2023-05-20T03:27:02.682Z,1008.13
2023-05-20T03:27:36.503Z,1008.13
2023-05-20T03:28:06.800Z,1008.13
2023-05-20T03:28:36.107Z,1008.23
2023-05-20T03:28:54.758Z,1008.23
2023-05-20T03:29:26.704Z,1008.23
2023-05-20T03:29:43.249Z,1007.92
2023-05-20T03:30:14.734Z,1007.92
2023-05-20T03:30:35.583Z,1007.92
2023-05-20T03:31:03.706Z,1007.92
2023-05-20T03:31:34.738Z,1007.92
2023-05-20T03:32:09.466Z,1007.92
2023-05-20T03:32:35.504Z,1008.23
2023-05-20T03:32:54.754Z,1008.23
2023-05-20T03:33:26.767Z,1008.23
2023-05-20T03:33:43.327Z,1008.02
2023-05-20T03:34:15.553Z,1008.02
2023-05-20T03:34:35.532Z,1008.13
2023-05-20T03:35:02.857Z,1008.13
2023-05-20T03:35:36.336Z,1008.13
2023-05-20T03:36:06.670Z,1007.82
2023-05-20T03:36:35.624Z,1008.13
2023-05-20T03:36:55.159Z,1008.13
2023-05-20T03:37:27.581Z,1008.13
2023-05-20T03:37:58.730Z,1008.02
2023-05-20T03:38:31.548Z,1008.02
2023-05-20T03:39:03.773Z,1008.13
2023-05-20T03:39:36.012Z,1008.13
2023-05-20T03:40:06.757Z,1008.23
2023-05-20T03:40:37.121Z,1008.02
2023-05-20T03:40:54.799Z,1008.02
2023-05-20T03:41:26.707Z,1008.02
2023-05-20T03:41:44.172Z,1008.02
2023-05-20T03:42:14.786Z,1008.02
2023-05-20T03:42:35.924Z,1008.23
2023-05-20T03:43:02.756Z,1008.23
2023-05-20T03:43:34.680Z,1008.23
2023-05-20T03:44:07.798Z,1008.02
2023-05-20T03:44:35.754Z,1008.23
2023-05-20T03:44:54.740Z,1008.23
2023-05-20T03:45:26.798Z,1008.23
2023-05-20T03:45:43.685Z,1008.33
2023-05-20T03:46:15.629Z,1008.33
2023-05-20T03:46:35.888Z,1008.02
2023-05-20T03:47:02.818Z,1008.02
2023-05-20T03:47:34.802Z,1008.02
2023-05-20T03:48:06.737Z,1008.13
2023-05-20T03:48:35.536Z,1008.02
2023-05-20T03:48:55.101Z,1008.02
2023-05-20T03:49:27.604Z,1008.02
2023-05-20T03:49:58.698Z,1008.23
2023-05-20T03:50:31.544Z,1008.23
2023-05-20T03:51:02.696Z,1008.13
2023-05-20T03:51:35.953Z,1008.13
2023-05-20T03:52:14.092Z,1008.13
2023-05-20T03:52:24.289Z,1007.92
2023-05-20T03:52:54.774Z,1008.13
2023-05-20T03:53:26.702Z,1008.13
2023-05-20T03:53:44.150Z,1008.23
2023-05-20T03:54:14.728Z,1008.23
2023-05-20T03:54:35.522Z,1008.13
2023-05-20T03:55:02.903Z,1008.13
2023-05-20T03:55:34.893Z,1008.13
2023-05-20T03:56:07.593Z,1008.13
2023-05-20T03:56:35.728Z,1007.92
2023-05-20T03:56:54.703Z,1007.92
2023-05-20T03:57:26.727Z,1007.92
2023-05-20T03:57:43.244Z,1008.13
2023-05-20T03:58:15.653Z,1008.13
2023-05-20T03:58:35.676Z,1007.92
2023-05-20T03:59:02.786Z,1007.92
2023-05-20T03:59:35.214Z,1007.92
2023-05-20T04:00:06.782Z,1008.13
2023-05-20T04:00:36.504Z,1008.23
2023-05-20T04:00:54.965Z,1008.23
2023-05-20T04:01:27.640Z,1008.23
2023-05-20T04:01:58.866Z,1008.13
2023-05-20T04:02:31.965Z,1008.13
2023-05-20T04:03:02.896Z,1008.23
2023-05-20T04:03:36.222Z,1008.23
2023-05-20T04:04:06.703Z,1008.23
2023-05-20T04:04:36.408Z,1008.13
2023-05-20T04:04:54.690Z,1008.13
2023-05-20T04:05:26.727Z,1008.13
2023-05-20T04:05:59.963Z,1008.02
2023-05-20T04:06:30.711Z,1008.02
2023-05-20T04:07:03.502Z,1007.92
2023-05-20T04:07:34.682Z,1007.92
2023-05-20T04:08:07.698Z,1007.92
2023-05-20T04:08:35.613Z,1008.23
2023-05-20T04:08:54.726Z,1008.23
2023-05-20T04:09:26.678Z,1008.23
2023-05-20T04:09:43.259Z,1008.23
2023-05-20T04:10:15.467Z,1008.23
2023-05-20T04:10:36.113Z,1008.23
2023-05-20T04:11:02.694Z,1008.23
2023-05-20T04:11:34.757Z,1008.23
2023-05-20T04:12:06.752Z,1008.13
2023-05-20T04:12:35.576Z,1008.13
2023-05-20T04:12:54.668Z,1008.13
2023-05-20T04:13:27.569Z,1008.13
2023-05-20T04:13:58.845Z,1008.13
2023-05-20T04:14:33.733Z,1008.13
2023-05-20T04:15:02.910Z,1008.23
2023-05-20T04:15:36.067Z,1008.23
2023-05-20T04:16:06.708Z,1008.13
2023-05-20T04:16:37.402Z,1008.02
2023-05-20T04:16:54.754Z,1008.02
2023-05-20T04:17:26.791Z,1008.02
2023-05-20T04:17:44.158Z,1008.33
2023-05-20T04:18:14.738Z,1008.33
2023-05-20T04:18:35.965Z,1008.02
2023-05-20T04:19:03.145Z,1008.02
2023-05-20T04:19:36.018Z,1008.02
2023-05-20T04:20:06.806Z,1008.23
2023-05-20T04:20:37.096Z,1008.23
2023-05-20T04:20:54.678Z,1008.23
2023-05-20T04:21:26.700Z,1008.23
2023-05-20T04:21:44.080Z,1008.02
2023-05-20T04:22:14.684Z,1008.02
2023-05-20T04:22:35.534Z,1008.33
2023-05-20T04:23:02.735Z,1008.33
2023-05-20T04:23:34.687Z,1008.33
2023-05-20T04:24:07.632Z,1008.43
2023-05-20T04:24:35.688Z,1008.43
2023-05-20T04:24:54.736Z,1008.43
2023-05-20T04:25:26.705Z,1008.43
2023-05-20T04:25:43.123Z,1008.23
2023-05-20T04:26:15.464Z,1008.23
2023-05-20T04:26:36.213Z,1008.23
2023-05-20T04:27:02.782Z,1008.23
2023-05-20T04:27:34.864Z,1008.23
2023-05-20T04:28:06.718Z,1008.43
2023-05-20T04:28:35.912Z,1008.23
2023-05-20T04:28:54.718Z,1008.23
2023-05-20T04:29:27.589Z,1008.23
2023-05-20T04:29:58.904Z,1008.23
2023-05-20T04:30:31.847Z,1008.23
2023-05-20T04:31:02.799Z,1008.23
2023-05-20T04:31:36.133Z,1008.23
2023-05-20T04:32:07.000Z,1008.23
2023-05-20T04:32:37.512Z,1008.33
2023-05-20T04:32:54.752Z,1008.33
2023-05-20T04:33:26.724Z,1008.33
2023-05-20T04:33:44.144Z,1008.23
2023-05-20T04:34:14.676Z,1008.23
2023-05-20T04:34:35.640Z,1008.43
2023-05-20T04:35:02.747Z,1008.43
2023-05-20T04:35:35.915Z,1008.43
2023-05-20T04:36:07.589Z,1008.23
2023-05-20T04:36:35.341Z,1008.13
2023-05-20T04:36:54.640Z,1008.13
2023-05-20T04:37:26.886Z,1008.13
2023-05-20T04:37:58.720Z,1008.23
2023-05-20T04:38:30.848Z,1008.23
2023-05-20T04:39:02.706Z,1008.13
2023-05-20T04:39:34.840Z,1008.13
2023-05-20T04:40:06.645Z,1008.13
2023-05-20T04:40:36.614Z,1008.33
2023-05-20T04:40:54.769Z,1008.33
2023-05-20T04:41:27.552Z,1008.33
2023-05-20T04:41:58.722Z,1008.13
2023-05-20T04:42:31.664Z,1008.13
2023-05-20T04:43:02.790Z,1008.02
2023-05-20T04:43:35.853Z,1008.02
2023-05-20T04:44:06.731Z,1008.02
2023-05-20T04:44:36.469Z,1008.02
2023-05-20T04:44:54.678Z,1008.02
2023-05-20T04:45:26.730Z,1008.02
2023-05-20T04:45:44.372Z,1008.02
2023-05-20T04:46:14.743Z,1008.02
2023-05-20T04:46:36.208Z,1008.13
2023-05-20T04:47:02.757Z,1008.13
2023-05-20T04:47:35.720Z,1008.13
2023-05-20T04:48:07.669Z,1008.02
2023-05-20T04:48:35.669Z,1008.23
2023-05-20T04:48:54.674Z,1008.23
2023-05-20T04:49:26.663Z,1008.23
2023-05-20T04:49:43.142Z,1008.02
2023-05-20T04:50:15.484Z,1008.02
2023-05-20T04:50:35.279Z,1008.13
2023-05-20T04:51:02.653Z,1008.13
2023-05-20T04:51:34.769Z,1008.13
2023-05-20T04:52:06.669Z,1007.92
2023-05-20T04:52:35.303Z,1008.02
2023-05-20T04:52:55.063Z,1008.02
2023-05-20T04:53:27.516Z,1008.02
2023-05-20T04:53:58.708Z,1008.02
2023-05-20T04:54:31.487Z,1008.02
2023-05-20T04:55:02.824Z,1008.13
2023-05-20T04:55:36.443Z,1008.13
2023-05-20T04:56:06.713Z,1008.02
2023-05-20T04:56:35.580Z,1008.02
2023-05-20T04:56:54.803Z,1008.02
2023-05-20T04:57:26.731Z,1008.02
2023-05-20T04:57:43.165Z,1008.02
2023-05-20T04:58:14.657Z,1008.02
2023-05-20T04:58:35.334Z,1008.02
2023-05-20T04:59:05.113Z,1008.02
2023-05-20T04:59:34.672Z,1008.02
2023-05-20T05:00:08.295Z,1007.82
2023-05-20T05:00:35.350Z,1008.02
2023-05-20T05:00:54.704Z,1008.02
2023-05-20T05:01:26.963Z,1008.02
2023-05-20T05:01:58.827Z,1008.02
2023-05-20T05:02:30.650Z,1008.02
2023-05-20T05:03:02.703Z,1007.92
2023-05-20T05:03:36.719Z,1007.92
2023-05-20T05:04:06.637Z,1007.92
2023-05-20T05:04:35.352Z,1008.02
2023-05-20T05:04:54.733Z,1008.02
2023-05-20T05:05:27.479Z,1008.02
2023-05-20T05:05:58.654Z,1007.92
2023-05-20T05:06:31.530Z,1007.92
2023-05-20T05:07:02.627Z,1008.02
2023-05-20T05:07:36.586Z,1008.02
2023-05-20T05:08:06.637Z,1008.13
2023-05-20T05:08:35.721Z,1008.13
2023-05-20T05:09:10.672Z,1008.13
2023-05-20T05:09:35.379Z,1007.92
2023-05-20T05:10:00.149Z,1007.92
2023-05-20T05:10:30.623Z,1007.92
2023-05-20T05:11:03.425Z,1008.02
2023-05-20T05:11:34.717Z,1008.02
2023-05-20T05:12:07.566Z,1007.92
2023-05-20T05:12:35.620Z,1008.23
2023-05-20T05:12:54.686Z,1008.23
2023-05-20T05:13:28.097Z,1008.23
2023-05-20T05:13:43.171Z,1007.82
2023-05-20T05:14:15.542Z,1007.82
2023-05-20T05:14:35.711Z,1007.92
2023-05-20T05:15:02.823Z,1007.92
2023-05-20T05:15:35.340Z,1007.92
2023-05-20T05:16:06.780Z,1008.02
2023-05-20T05:16:35.725Z,1008.02
2023-05-20T05:16:55.794Z,1008.02
2023-05-20T05:17:27.554Z,1008.02
2023-05-20T05:17:58.718Z,1007.92
2023-05-20T05:18:31.596Z,1007.92
2023-05-20T05:19:02.658Z,1007.82
2023-05-20T05:19:34.612Z,1007.82
2023-05-20T05:20:06.687Z,1007.92
2023-05-20T05:20:36.141Z,1007.82
2023-05-20T05:20:56.684Z,1007.82
2023-05-20T05:21:26.639Z,1007.82
2023-05-20T05:21:43.327Z,1008.13
2023-05-20T05:22:14.753Z,1008.13
2023-05-20T05:22:35.300Z,1008.13
2023-05-20T05:23:03.766Z,1008.13
2023-05-20T05:23:35.064Z,1008.13
2023-05-20T05:24:07.485Z,1007.92
2023-05-20T05:24:35.784Z,1007.92
2023-05-20T05:24:54.636Z,1007.92
2023-05-20T05:25:26.786Z,1007.92
2023-05-20T05:25:43.215Z,1007.92
2023-05-20T05:26:15.466Z,1007.92
2023-05-20T05:26:35.286Z,1007.72
2023-05-20T05:27:02.759Z,1007.72
2023-05-20T05:27:34.595Z,1007.72
2023-05-20T05:28:06.652Z,1007.72
2023-05-20T05:28:36.435Z,1007.82
2023-05-20T05:28:54.638Z,1007.82
2023-05-20T05:29:27.636Z,1007.82
2023-05-20T05:29:58.635Z,1007.92
2023-05-20T05:30:31.403Z,1007.92
2023-05-20T05:31:02.678Z,1007.72
2023-05-20T05:31:36.531Z,1007.72
2023-05-20T05:32:06.700Z,1007.92
2023-05-20T05:32:35.989Z,1007.72
2023-05-20T05:32:54.769Z,1007.72
2023-05-20T05:33:26.708Z,1007.72
2023-05-20T05:33:43.111Z,1007.92
2023-05-20T05:34:14.744Z,1007.92
2023-05-20T05:34:35.378Z,1007.82
2023-05-20T05:35:04.644Z,1007.82
2023-05-20T05:35:35.275Z,1007.82
2023-05-20T05:36:07.429Z,1007.72
2023-05-20T05:36:35.359Z,1007.72
2023-05-20T05:36:54.769Z,1007.72
2023-05-20T05:37:26.685Z,1007.72
2023-05-20T05:37:43.140Z,1007.72
2023-05-20T05:38:15.531Z,1007.72
2023-05-20T05:38:35.457Z,1007.92
2023-05-20T05:39:02.658Z,1007.92
2023-05-20T05:39:35.061Z,1007.92
2023-05-20T05:40:06.801Z,1007.82
2023-05-20T05:40:36.046Z,1007.72
2023-05-20T05:40:54.630Z,1007.72
2023-05-20T05:41:27.536Z,1007.72
2023-05-20T05:41:58.579Z,1007.82